Time;durP1;ratioP1;P1;durP2;ratioP2;P2;SDS_P1;SDS_P2;PMS_P1;PMS_P2;Temp;Humidity;BMP_temperature;BMP_pressure;BME280_temperature;BME280_humidity;BME280_pressure;Samples;Min_cycle;Max_cycle;Signal;HPM_P1;HPM_P2
2021/05/06 00:01:50;;;;;;;2.92;1.10;;;;;;;;;;5055777;28;20064;-62
2021/05/06 00:04:49;;;;;;;3.38;1.05;;;;;;;;;;5049630;28;20864;-61
2021/05/06 00:32:15;;;;;;;4.18;1.15;;;;;;;;;;5044210;28;20506;-61
2021/05/06 00:34:43;;;;;;;1.88;1.10;;;;;;;;;;5049813;28;20057;-62
2021/05/06 00:37:13;;;;;;;2.40;1.10;;;;;;;;;;5046543;28;20072;-62
2021/05/06 00:39:45;;;;;;;3.05;1.67;;;;;;;;;;5047727;28;20041;-62
2021/05/06 00:42:30;;;;;;;3.55;1.20;;;;;;;;;;5049669;28;20149;-62
2021/05/06 01:01:40;;;;;;;5.43;1.27;;;;;;;;;;5041271;28;20041;-62
2021/05/06 01:04:20;;;;;;;1.83;1.17;;;;;;;;;;5065544;22;20114;-64
2021/05/06 01:06:56;;;;;;;1.88;1.17;;;;;;;;;;5073201;28;20121;-64
2021/05/06 01:09:28;;;;;;;4.90;1.17;;;;;;;;;;5073513;28;20048;-65
2021/05/06 01:11:57;;;;;;;1.92;0.90;;;;;;;;;;5073033;28;20131;-65
2021/05/06 01:14:25;;;;;;;4.07;1.00;;;;;;;;;;5072572;28;20040;-67
2021/05/06 01:16:53;;;;;;;2.65;1.10;;;;;;;;;;5072528;28;20060;-67
2021/05/06 01:19:21;;;;;;;2.80;1.00;;;;;;;;;;5073067;28;20055;-65
2021/05/06 01:21:49;;;;;;;3.03;1.10;;;;;;;;;;5059117;28;20450;-67
2021/05/06 01:24:16;;;;;;;3.75;1.45;;;;;;;;;;5038931;28;20045;-65
2021/05/06 01:26:50;;;;;;;3.70;1.30;;;;;;;;;;5039828;28;20049;-66
2021/05/06 01:29:22;;;;;;;1.90;1.20;;;;;;;;;;5037336;28;20100;-65
2021/05/06 01:31:51;;;;;;;3.85;1.65;;;;;;;;;;5038298;28;20416;-67
2021/05/06 01:34:20;;;;;;;3.25;1.50;;;;;;;;;;5039440;28;20050;-65
2021/05/06 01:36:53;;;;;;;3.50;1.40;;;;;;;;;;5043529;28;20049;-64
2021/05/06 01:42:25;;;;;;;3.33;1.30;;;;;;;;;;5039869;28;20049;-64
2021/05/06 01:45:12;;;;;;;5.68;1.40;;;;;;;;;;5038118;28;20496;-68
2021/05/06 01:47:41;;;;;;;4.60;1.40;;;;;;;;;;5038096;28;20124;-64
2021/05/06 01:50:28;;;;;;;3.22;1.15;;;;;;;;;;5039212;28;20052;-64
2021/05/06 01:58:41;;;;;;;;;;;;;;;;;;5042120;28;20144;-64
2021/05/06 02:01:09;;;;;;;2.00;1.15;;;;;;;;;;5043111;28;20027;-67
2021/05/06 02:03:37;;;;;;;6.18;1.40;;;;;;;;;;5046564;28;20065;-65
2021/05/06 02:06:04;;;;;;;3.17;1.38;;;;;;;;;;5064434;28;20131;-66
2021/05/06 02:08:33;;;;;;;3.53;1.00;;;;;;;;;;5063995;28;20048;-64
2021/05/06 02:11:01;;;;;;;3.70;1.40;;;;;;;;;;5062369;28;20063;-66
2021/05/06 02:13:29;;;;;;;3.92;1.27;;;;;;;;;;5064767;28;20579;-66
2021/05/06 02:15:58;;;;;;;4.53;1.50;;;;;;;;;;5058818;28;20043;-67
2021/05/06 02:18:26;;;;;;;3.65;1.13;;;;;;;;;;5063293;28;20132;-65
2021/05/06 02:20:53;;;;;;;2.70;1.10;;;;;;;;;;5063360;28;20246;-65
2021/05/06 02:23:21;;;;;;;4.68;1.27;;;;;;;;;;5062676;28;20338;-65
2021/05/06 02:25:49;;;;;;;5.50;1.45;;;;;;;;;;5062522;28;20080;-66
2021/05/06 02:28:17;;;;;;;6.70;1.58;;;;;;;;;;5064978;28;20136;-65
2021/05/06 02:30:44;;;;;;;5.63;1.13;;;;;;;;;;5062715;28;20055;-65
2021/05/06 02:33:12;;;;;;;3.67;1.30;;;;;;;;;;5062217;28;20128;-65
2021/05/06 02:35:43;;;;;;;4.70;1.45;;;;;;;;;;5065538;28;20151;-64
2021/05/06 02:38:10;;;;;;;3.17;1.13;;;;;;;;;;5060731;28;20064;-65
2021/05/06 02:40:38;;;;;;;4.30;1.42;;;;;;;;;;5067771;28;20048;-69
2021/05/06 02:43:06;;;;;;;4.22;1.45;;;;;;;;;;5063852;28;20054;-65
2021/05/06 02:45:33;;;;;;;5.15;1.00;;;;;;;;;;5063801;28;20047;-65
2021/05/06 02:48:00;;;;;;;3.22;1.20;;;;;;;;;;5055685;28;20044;-65
2021/05/06 02:50:28;;;;;;;4.65;1.33;;;;;;;;;;5064370;28;20050;-65
2021/05/06 02:53:01;;;;;;;4.30;1.15;;;;;;;;;;5063251;28;20055;-65
2021/05/06 02:55:37;;;;;;;6.13;1.30;;;;;;;;;;5061613;28;20140;-65
2021/05/06 02:58:10;;;;;;;2.95;1.25;;;;;;;;;;5065024;28;20137;-65
2021/05/06 03:03:23;;;;;;;4.07;1.40;;;;;;;;;;5059514;28;20168;-65
2021/05/06 03:05:53;;;;;;;2.95;1.00;;;;;;;;;;5061866;28;20040;-67
2021/05/06 03:08:24;;;;;;;8.40;1.55;;;;;;;;;;5062080;28;20041;-65
2021/05/06 03:24:44;;;;;;;4.10;1.10;;;;;;;;;;5069545;28;20147;-65
2021/05/06 03:27:14;;;;;;;5.72;1.42;;;;;;;;;;5065763;28;20048;-65
2021/05/06 03:29:51;;;;;;;5.22;1.35;;;;;;;;;;5060952;28;20198;-65
2021/05/06 03:32:35;;;;;;;3.20;1.17;;;;;;;;;;5062285;28;20070;-65
2021/05/06 03:35:15;;;;;;;6.43;1.17;;;;;;;;;;5060080;28;20462;-67
2021/05/06 03:43:31;;;;;;;5.43;1.48;;;;;;;;;;5066086;28;19926;-67
2021/05/06 04:16:51;;;;;;;3.10;1.42;;;;;;;;;;5044322;28;20090;-65
2021/05/06 04:27:32;;;;;;;5.18;1.77;;;;;;;;;;5070273;28;20080;-65
2021/05/06 04:30:15;;;;;;;6.15;2.15;;;;;;;;;;5070786;28;20080;-65
2021/05/06 04:35:40;;;;;;;3.90;1.70;;;;;;;;;;5070393;28;20037;-65
2021/05/06 04:38:08;;;;;;;6.30;2.25;;;;;;;;;;5068662;28;20143;-67
2021/05/06 04:40:56;;;;;;;5.25;1.67;;;;;;;;;;5067793;28;20064;-65
2021/05/06 04:44:04;;;;;;;5.30;1.83;;;;;;;;;;5070304;28;20105;-64
2021/05/06 04:54:42;;;;;;;4.95;1.40;;;;;;;;;;5073081;28;20068;-65
2021/05/06 04:57:22;;;;;;;4.20;1.33;;;;;;;;;;5067362;28;20040;-65
2021/05/06 05:05:20;;;;;;;8.63;2.65;;;;;;;;;;5066851;28;20561;-65
2021/05/06 05:07:52;;;;;;;8.05;2.33;;;;;;;;;;5066536;28;20491;-65
2021/05/06 05:10:28;;;;;;;10.73;3.35;;;;;;;;;;5070069;28;20083;-65
2021/05/06 05:19:03;;;;;;;3.92;1.90;;;;;;;;;;5112329;27;20055;-63
2021/05/06 05:24:22;;;;;;;10.15;2.17;;;;;;;;;;5102923;28;20056;-63
2021/05/06 05:26:50;;;;;;;3.22;1.83;;;;;;;;;;5102777;28;20447;-63
2021/05/06 05:29:17;;;;;;;8.43;2.40;;;;;;;;;;5101236;28;20127;-63
2021/05/06 05:31:45;;;;;;;6.65;2.90;;;;;;;;;;5103496;28;20051;-63
2021/05/06 05:34:24;;;;;;;4.65;2.15;;;;;;;;;;5104118;28;20047;-63
2021/05/06 05:36:54;;;;;;;4.63;2.00;;;;;;;;;;5098190;28;20059;-65
2021/05/06 05:39:28;;;;;;;7.85;2.20;;;;;;;;;;5103887;28;20101;-63
2021/05/06 05:55:47;;;;;;;5.97;2.22;;;;;;;;;;5103261;28;20063;-67
2021/05/06 05:58:14;;;;;;;5.55;2.20;;;;;;;;;;5100638;28;20044;-64
2021/05/06 06:00:42;;;;;;;3.55;1.83;;;;;;;;;;5103041;28;20044;-62
2021/05/06 06:03:10;;;;;;;4.63;1.92;;;;;;;;;;5103231;28;20048;-63
2021/05/06 06:05:38;;;;;;;4.55;2.15;;;;;;;;;;5103192;28;20044;-67
2021/05/06 06:08:06;;;;;;;5.60;1.90;;;;;;;;;;5102652;27;20525;-63
2021/05/06 06:10:34;;;;;;;8.65;2.00;;;;;;;;;;5103479;28;20541;-63
2021/05/06 06:13:01;;;;;;;6.32;2.00;;;;;;;;;;5103672;28;20171;-63
2021/05/06 06:15:45;;;;;;;6.75;2.00;;;;;;;;;;5103430;28;20134;-63
2021/05/06 06:18:17;;;;;;;5.35;1.77;;;;;;;;;;5084470;28;20048;-63
2021/05/06 06:20:54;;;;;;;6.85;2.03;;;;;;;;;;5103383;28;20056;-65
2021/05/06 06:23:22;;;;;;;5.45;1.73;;;;;;;;;;5103482;28;20143;-63
2021/05/06 06:25:50;;;;;;;7.93;1.60;;;;;;;;;;5096965;28;20128;-62
2021/05/06 06:28:17;;;;;;;11.43;2.30;;;;;;;;;;5088955;28;20058;-63
2021/05/06 06:30:45;;;;;;;5.72;1.98;;;;;;;;;;5089663;28;20048;-64
2021/05/06 06:33:14;;;;;;;6.80;1.50;;;;;;;;;;5081734;28;20449;-63
2021/05/06 06:35:42;;;;;;;5.78;1.65;;;;;;;;;;5083074;28;20487;-63
2021/05/06 06:38:10;;;;;;;10.48;1.95;;;;;;;;;;5069458;28;20395;-66
2021/05/06 06:40:38;;;;;;;8.35;1.83;;;;;;;;;;5082573;28;20052;-65
2021/05/06 06:43:06;;;;;;;8.13;1.98;;;;;;;;;;5089015;28;20047;-64
2021/05/06 06:45:34;;;;;;;8.18;1.70;;;;;;;;;;5085968;28;20048;-64
2021/05/06 06:48:02;;;;;;;8.73;1.63;;;;;;;;;;5092192;28;20502;-64
2021/05/06 06:50:31;;;;;;;10.75;1.80;;;;;;;;;;5093172;28;20101;-64
2021/05/06 06:52:58;;;;;;;3.35;1.38;;;;;;;;;;5092805;28;20044;-63
2021/05/06 06:55:26;;;;;;;3.80;1.42;;;;;;;;;;5092310;28;20174;-64
2021/05/06 06:57:54;;;;;;;4.32;1.38;;;;;;;;;;5092488;28;20060;-66
2021/05/06 07:00:23;;;;;;;8.68;2.05;;;;;;;;;;5093517;28;20040;-64
2021/05/06 07:02:50;;;;;;;5.65;1.42;;;;;;;;;;5092040;28;20048;-63
2021/05/06 07:05:19;;;;;;;5.88;1.50;;;;;;;;;;5092623;28;20055;-63
2021/05/06 07:07:48;;;;;;;9.48;1.90;;;;;;;;;;5092074;28;20048;-64
2021/05/06 07:10:16;;;;;;;3.35;1.30;;;;;;;;;;5092421;28;20066;-64
2021/05/06 07:12:44;;;;;;;5.20;1.67;;;;;;;;;;5092833;28;20155;-63
2021/05/06 07:15:13;;;;;;;6.03;1.40;;;;;;;;;;5090861;28;20080;-63
2021/05/06 07:17:41;;;;;;;7.82;1.70;;;;;;;;;;5092853;28;20098;-63
2021/05/06 07:20:10;;;;;;;5.38;1.73;;;;;;;;;;5092949;28;20400;-64
2021/05/06 07:22:38;;;;;;;7.85;1.63;;;;;;;;;;5093431;28;20056;-63
2021/05/06 07:25:12;;;;;;;6.65;1.67;;;;;;;;;;5091609;28;20493;-63
2021/05/06 07:27:42;;;;;;;4.05;1.50;;;;;;;;;;5086017;28;20105;-64
2021/05/06 07:30:12;;;;;;;5.55;1.35;;;;;;;;;;5088509;28;20051;-64
2021/05/06 07:32:44;;;;;;;6.10;1.60;;;;;;;;;;5088815;28;20152;-65
2021/05/06 07:35:15;;;;;;;5.95;1.88;;;;;;;;;;5088894;28;20040;-64
2021/05/06 07:37:44;;;;;;;7.03;2.75;;;;;;;;;;5088729;28;20097;-64
2021/05/06 07:40:16;;;;;;;9.15;1.90;;;;;;;;;;5094280;28;20047;-65
2021/05/06 07:42:46;;;;;;;4.40;1.42;;;;;;;;;;5092716;28;20040;-64
2021/05/06 07:45:17;;;;;;;8.25;1.60;;;;;;;;;;5090468;28;20040;-64
2021/05/06 07:47:47;;;;;;;6.53;1.58;;;;;;;;;;5086860;28;20056;-68
2021/05/06 07:50:19;;;;;;;6.10;1.30;;;;;;;;;;5087430;28;20036;-65
2021/05/06 07:52:51;;;;;;;9.25;1.88;;;;;;;;;;5090639;28;20054;-64
2021/05/06 07:55:23;;;;;;;6.05;1.63;;;;;;;;;;5080776;28;20048;-66
2021/05/06 07:57:52;;;;;;;7.15;1.48;;;;;;;;;;5082675;28;20044;-64
2021/05/06 08:00:21;;;;;;;4.97;1.60;;;;;;;;;;5085164;28;20067;-65
2021/05/06 08:02:50;;;;;;;6.85;1.83;;;;;;;;;;5087000;28;20044;-64
2021/05/06 08:05:18;;;;;;;7.75;1.90;;;;;;;;;;5087641;28;20491;-64
2021/05/06 08:07:46;;;;;;;6.30;1.48;;;;;;;;;;5088552;27;20059;-64
2021/05/06 08:10:15;;;;;;;7.65;1.80;;;;;;;;;;5085592;28;20051;-67
2021/05/06 08:12:44;;;;;;;4.40;1.33;;;;;;;;;;5086493;28;20054;-64
2021/05/06 08:15:13;;;;;;;9.32;1.60;;;;;;;;;;5087487;28;20581;-65
2021/05/06 08:17:43;;;;;;;6.15;1.70;;;;;;;;;;5088054;28;20495;-65
2021/05/06 08:20:13;;;;;;;6.50;1.45;;;;;;;;;;5087456;28;20048;-64
2021/05/06 08:22:41;;;;;;;6.93;1.50;;;;;;;;;;5089213;28;20054;-65
2021/05/06 08:25:10;;;;;;;10.15;2.25;;;;;;;;;;5086909;28;20515;-66
2021/05/06 08:27:39;;;;;;;6.93;1.75;;;;;;;;;;5085544;28;20052;-64
2021/05/06 08:30:09;;;;;;;4.78;1.48;;;;;;;;;;5083550;28;20138;-67
2021/05/06 08:32:37;;;;;;;6.40;1.77;;;;;;;;;;5078695;28;20080;-64
2021/05/06 08:35:06;;;;;;;7.00;1.50;;;;;;;;;;5078941;28;20998;-64
2021/05/06 08:37:34;;;;;;;6.40;1.50;;;;;;;;;;5077938;28;20060;-68
2021/05/06 08:40:02;;;;;;;5.22;1.63;;;;;;;;;;5079095;28;20039;-64
2021/05/06 08:42:32;;;;;;;6.38;1.67;;;;;;;;;;5082158;28;20040;-65
2021/05/06 08:45:03;;;;;;;6.93;1.40;;;;;;;;;;5087536;28;20102;-64
2021/05/06 08:47:32;;;;;;;6.43;1.92;;;;;;;;;;5089468;28;20502;-63
2021/05/06 08:50:01;;;;;;;8.15;1.70;;;;;;;;;;5088829;28;20044;-63
2021/05/06 08:52:28;;;;;;;8.00;1.25;;;;;;;;;;5096434;28;20045;-64
2021/05/06 08:54:58;;;;;;;4.75;1.77;;;;;;;;;;5089322;28;20471;-65
2021/05/06 08:57:27;;;;;;;5.00;1.25;;;;;;;;;;5085533;28;20044;-67
2021/05/06 08:59:55;;;;;;;2.90;1.38;;;;;;;;;;5086652;28;20047;-65
2021/05/06 09:02:23;;;;;;;7.72;1.92;;;;;;;;;;5086411;28;20048;-64
2021/05/06 09:04:51;;;;;;;5.03;1.60;;;;;;;;;;5088918;28;20052;-64
2021/05/06 09:07:23;;;;;;;4.72;1.50;;;;;;;;;;5079812;27;20078;-66
2021/05/06 09:09:52;;;;;;;4.70;1.45;;;;;;;;;;5081390;28;20048;-64
2021/05/06 09:12:34;;;;;;;6.72;1.35;;;;;;;;;;5088656;28;20040;-66
2021/05/06 09:15:08;;;;;;;5.45;1.40;;;;;;;;;;5100931;28;20482;-65
2021/05/06 09:17:36;;;;;;;8.25;1.83;;;;;;;;;;5090303;28;20131;-64
2021/05/06 09:20:16;;;;;;;7.88;1.80;;;;;;;;;;5099431;28;20125;-65
2021/05/06 09:22:45;;;;;;;8.60;1.63;;;;;;;;;;5087711;28;20498;-66
2021/05/06 09:25:26;;;;;;;8.13;2.25;;;;;;;;;;5089350;28;20075;-65
2021/05/06 09:28:09;;;;;;;9.07;1.92;;;;;;;;;;5087955;27;20081;-67
2021/05/06 09:30:37;;;;;;;5.53;1.70;;;;;;;;;;5082972;28;20056;-64
2021/05/06 09:33:06;;;;;;;8.73;2.20;;;;;;;;;;5089397;28;20098;-62
2021/05/06 09:35:43;;;;;;;4.13;1.55;;;;;;;;;;5082334;28;20297;-65
2021/05/06 09:38:29;;;;;;;9.30;1.50;;;;;;;;;;5077799;28;20384;-62
2021/05/06 09:41:00;;;;;;;8.82;1.80;;;;;;;;;;5083606;28;20084;-63
2021/05/06 09:43:30;;;;;;;8.50;1.80;;;;;;;;;;5088673;28;20395;-63
2021/05/06 09:46:04;;;;;;;4.38;1.40;;;;;;;;;;5088355;28;20339;-63
2021/05/06 09:48:32;;;;;;;10.30;2.22;;;;;;;;;;5089450;28;20570;-64
2021/05/06 09:51:03;;;;;;;9.00;1.98;;;;;;;;;;5087899;28;20090;-63
2021/05/06 09:53:32;;;;;;;8.43;1.83;;;;;;;;;;5087907;28;20060;-63
2021/05/06 09:56:01;;;;;;;6.88;1.50;;;;;;;;;;5080638;28;20135;-64
2021/05/06 09:58:32;;;;;;;9.57;1.70;;;;;;;;;;5087267;28;20044;-63
2021/05/06 10:01:10;;;;;;;4.65;1.45;;;;;;;;;;5075743;28;20461;-62
2021/05/06 10:03:38;;;;;;;6.28;1.60;;;;;;;;;;5073496;28;20106;-63
2021/05/06 10:06:15;;;;;;;5.57;1.40;;;;;;;;;;5088335;28;20117;-63
2021/05/06 10:08:43;;;;;;;6.10;1.50;;;;;;;;;;5090727;28;20051;-62
2021/05/06 10:11:11;;;;;;;4.75;1.25;;;;;;;;;;5088530;28;20052;-65
2021/05/06 10:13:40;;;;;;;7.95;1.58;;;;;;;;;;5092451;28;20095;-63
2021/05/06 10:16:08;;;;;;;6.40;1.63;;;;;;;;;;5084576;28;20060;-63
2021/05/06 10:18:39;;;;;;;6.53;1.55;;;;;;;;;;5074793;28;20056;-64
2021/05/06 10:21:08;;;;;;;5.97;1.63;;;;;;;;;;5073076;28;20044;-62
2021/05/06 10:23:37;;;;;;;7.18;1.83;;;;;;;;;;5083458;28;20083;-65
2021/05/06 10:26:05;;;;;;;7.65;1.50;;;;;;;;;;5087506;28;20746;-65
2021/05/06 10:28:34;;;;;;;4.30;1.13;;;;;;;;;;5079410;28;20509;-63
2021/05/06 10:31:01;;;;;;;5.13;1.48;;;;;;;;;;5090340;28;20048;-64
2021/05/06 10:33:30;;;;;;;7.35;1.35;;;;;;;;;;5075951;28;20053;-63
2021/05/06 10:35:57;;;;;;;2.25;1.17;;;;;;;;;;5081911;28;20758;-64
2021/05/06 10:38:25;;;;;;;5.32;1.50;;;;;;;;;;5080722;28;20056;-64
2021/05/06 10:40:54;;;;;;;6.40;1.48;;;;;;;;;;5090008;28;20044;-64
2021/05/06 10:43:26;;;;;;;6.05;1.50;;;;;;;;;;5090681;28;20056;-63
2021/05/06 10:45:58;;;;;;;4.13;1.27;;;;;;;;;;5088733;28;20048;-63
2021/05/06 10:48:56;;;;;;;7.28;1.45;;;;;;;;;;5091687;28;20431;-64
2021/05/06 10:51:28;;;;;;;6.88;1.20;;;;;;;;;;5091865;28;20074;-63
2021/05/06 10:53:56;;;;;;;4.38;1.10;;;;;;;;;;5092035;28;20098;-64
2021/05/06 10:56:24;;;;;;;2.10;1.20;;;;;;;;;;5090544;28;20503;-63
2021/05/06 10:58:52;;;;;;;3.30;1.30;;;;;;;;;;5092054;28;20487;-63
2021/05/06 11:01:23;;;;;;;4.88;1.23;;;;;;;;;;5090576;28;20070;-63
2021/05/06 11:04:17;;;;;;;3.78;1.33;;;;;;;;;;5091152;28;20051;-64
2021/05/06 11:06:46;;;;;;;4.18;1.17;;;;;;;;;;5038005;28;20048;-65
2021/05/06 11:09:42;;;;;;;3.58;1.45;;;;;;;;;;5079261;28;20083;-63
2021/05/06 11:12:22;;;;;;;5.32;1.30;;;;;;;;;;5085704;28;20495;-64
2021/05/06 11:15:17;;;;;;;3.30;1.20;;;;;;;;;;5091715;28;20048;-64
2021/05/06 11:17:45;;;;;;;5.57;1.30;;;;;;;;;;5064686;28;20067;-64
2021/05/06 11:20:27;;;;;;;3.17;1.20;;;;;;;;;;5091678;28;20331;-67
2021/05/06 11:22:57;;;;;;;6.53;1.33;;;;;;;;;;5086956;28;20301;-63
2021/05/06 11:25:43;;;;;;;2.47;1.20;;;;;;;;;;5084381;28;20427;-62
2021/05/06 11:28:26;;;;;;;4.40;1.20;;;;;;;;;;5090214;28;20101;-63
2021/05/06 11:31:00;;;;;;;8.98;1.42;;;;;;;;;;5082761;28;20055;-63
2021/05/06 11:33:28;;;;;;;6.43;1.40;;;;;;;;;;5078952;28;20052;-63
2021/05/06 11:35:57;;;;;;;7.40;1.77;;;;;;;;;;5088219;28;20141;-66
2021/05/06 11:38:42;;;;;;;4.30;1.58;;;;;;;;;;5087841;28;20048;-64
2021/05/06 11:41:11;;;;;;;4.97;1.23;;;;;;;;;;5102394;28;20437;-64
2021/05/06 11:43:41;;;;;;;3.45;1.15;;;;;;;;;;5112907;28;20047;-63
2021/05/06 11:46:10;;;;;;;4.28;1.23;;;;;;;;;;5085738;28;20052;-63
2021/05/06 11:48:39;;;;;;;7.63;1.33;;;;;;;;;;5089876;28;20048;-63
2021/05/06 11:51:08;;;;;;;3.05;1.30;;;;;;;;;;5089659;28;20047;-64
2021/05/06 11:53:36;;;;;;;3.05;1.10;;;;;;;;;;5090294;28;20140;-63
2021/05/06 11:56:11;;;;;;;4.07;1.23;;;;;;;;;;5088414;28;20135;-63
2021/05/06 11:58:40;;;;;;;2.90;1.10;;;;;;;;;;5089664;27;20403;-63
2021/05/06 12:01:09;;;;;;;5.25;1.20;;;;;;;;;;5089999;28;20048;-64
2021/05/06 12:03:39;;;;;;;3.05;1.35;;;;;;;;;;5082051;28;20056;-63
2021/05/06 12:06:07;;;;;;;3.13;1.30;;;;;;;;;;5085706;28;20556;-66
2021/05/06 12:08:44;;;;;;;3.90;1.20;;;;;;;;;;5090322;28;20051;-64
2021/05/06 12:11:12;;;;;;;3.28;1.30;;;;;;;;;;5089671;28;20051;-65
2021/05/06 12:13:42;;;;;;;4.22;1.45;;;;;;;;;;5090729;28;20052;-64
2021/05/06 12:16:15;;;;;;;3.17;1.40;;;;;;;;;;5090948;28;20048;-64
2021/05/06 12:18:44;;;;;;;3.40;1.33;;;;;;;;;;5089202;28;20056;-63
2021/05/06 12:21:12;;;;;;;2.72;1.20;;;;;;;;;;5087042;28;20040;-65
2021/05/06 12:23:48;;;;;;;2.90;1.40;;;;;;;;;;5089793;28;20052;-64
2021/05/06 12:26:20;;;;;;;3.92;1.27;;;;;;;;;;5079046;28;20573;-63
2021/05/06 12:28:48;;;;;;;3.42;1.17;;;;;;;;;;5089515;28;20140;-64
2021/05/06 12:31:16;;;;;;;4.22;1.52;;;;;;;;;;5088005;28;20187;-64
2021/05/06 12:33:45;;;;;;;6.65;1.48;;;;;;;;;;5089963;28;20399;-63
2021/05/06 12:36:25;;;;;;;5.06;1.56;;;;;;;;;;4958866;28;10001804;-64
2021/05/06 12:38:53;;;;;;;5.72;1.73;;;;;;;;;;691849;28;10002135;-63
2021/05/06 12:41:21;;;;;;;4.32;1.33;;;;;;;;;;5048212;28;20053;-65
2021/05/06 12:43:50;;;;;;;4.45;1.38;;;;;;;;;;5044125;28;20051;-63
2021/05/06 12:46:24;;;;;;;2.60;1.40;;;;;;;;;;5046238;28;20053;-66
2021/05/06 12:48:57;;;;;;;2.38;1.42;;;;;;;;;;5022744;28;20523;-62
2021/05/06 12:51:30;;;;;;;4.38;1.60;;;;;;;;;;5037143;28;20067;-63
2021/05/06 12:54:10;;;;;;;3.58;1.67;;;;;;;;;;5046573;28;20288;-62
2021/05/06 12:56:39;;;;;;;7.00;1.45;;;;;;;;;;5049316;28;20045;-62
2021/05/06 12:59:23;;;;;;;4.72;1.48;;;;;;;;;;5048628;28;20080;-62
2021/05/06 13:01:51;;;;;;;3.67;1.25;;;;;;;;;;5048632;28;20048;-62
2021/05/06 13:04:20;;;;;;;6.45;2.05;;;;;;;;;;5055335;28;20047;-63
2021/05/06 13:07:01;;;;;;;3.13;1.42;;;;;;;;;;5048466;28;20053;-64
2021/05/06 13:09:39;;;;;;;2.65;1.38;;;;;;;;;;5042178;28;20051;-65
2021/05/06 13:12:11;;;;;;;4.45;1.40;;;;;;;;;;5037226;28;20390;-62
2021/05/06 13:14:52;;;;;;;9.32;1.95;;;;;;;;;;5040965;28;20064;-62
2021/05/06 13:17:23;;;;;;;3.53;1.70;;;;;;;;;;5030664;28;20056;-62
2021/05/06 13:19:52;;;;;;;5.55;1.48;;;;;;;;;;5031230;28;20048;-64
2021/05/06 13:22:21;;;;;;;3.42;1.65;;;;;;;;;;5033476;28;20059;-62
2021/05/06 13:24:51;;;;;;;3.38;1.50;;;;;;;;;;5032811;28;20041;-63
2021/05/06 13:27:19;;;;;;;5.03;1.45;;;;;;;;;;5044852;28;20044;-62
2021/05/06 13:29:49;;;;;;;7.65;1.77;;;;;;;;;;5039942;28;20046;-62
2021/05/06 13:32:17;;;;;;;5.63;1.80;;;;;;;;;;5035831;28;20045;-63
2021/05/06 13:34:56;;;;;;;3.25;1.38;;;;;;;;;;5048421;28;20053;-62
2021/05/06 13:37:33;;;;;;;6.22;1.77;;;;;;;;;;5037461;28;20083;-64
2021/05/06 13:40:02;;;;;;;8.48;1.95;;;;;;;;;;5042475;28;20124;-63
2021/05/06 13:42:29;;;;;;;7.30;1.92;;;;;;;;;;5039656;28;20124;-65
2021/05/06 13:44:58;;;;;;;3.97;1.73;;;;;;;;;;5053508;28;20045;-63
2021/05/06 13:47:26;;;;;;;7.18;1.75;;;;;;;;;;5052062;28;20049;-63
2021/05/06 13:49:54;;;;;;;4.75;1.75;;;;;;;;;;5053838;28;20064;-66
2021/05/06 13:52:26;;;;;;;3.88;1.52;;;;;;;;;;5052979;28;20048;-62
2021/05/06 13:54:54;;;;;;;5.05;1.85;;;;;;;;;;5060161;28;20079;-66
2021/05/06 13:57:22;;;;;;;5.63;1.67;;;;;;;;;;5050607;28;20068;-65
2021/05/06 13:59:50;;;;;;;4.82;2.17;;;;;;;;;;5050925;28;20111;-63
2021/05/06 14:02:20;;;;;;;7.55;1.70;;;;;;;;;;5043344;28;20053;-63
2021/05/06 14:04:49;;;;;;;8.95;2.28;;;;;;;;;;5050403;28;20042;-62
2021/05/06 14:07:17;;;;;;;7.18;2.00;;;;;;;;;;5046491;28;20523;-63
2021/05/06 14:09:46;;;;;;;5.78;2.10;;;;;;;;;;5037679;28;20057;-64
2021/05/06 14:12:14;;;;;;;8.23;3.03;;;;;;;;;;5042421;28;20044;-63
2021/05/06 14:14:43;;;;;;;4.53;2.10;;;;;;;;;;5039062;28;20054;-64
2021/05/06 14:17:11;;;;;;;5.60;2.03;;;;;;;;;;5048312;28;20048;-64
2021/05/06 14:19:42;;;;;;;7.47;2.15;;;;;;;;;;5050609;28;20460;-62
2021/05/06 14:22:11;;;;;;;3.20;1.63;;;;;;;;;;5048408;28;20056;-67
2021/05/06 14:24:39;;;;;;;5.50;1.73;;;;;;;;;;5039510;28;20041;-63
2021/05/06 14:27:07;;;;;;;5.85;1.88;;;;;;;;;;5046741;28;20057;-63
2021/05/06 14:29:36;;;;;;;4.75;1.80;;;;;;;;;;5047674;28;20045;-64
2021/05/06 14:32:04;;;;;;;5.65;1.80;;;;;;;;;;5052664;28;20057;-62
2021/05/06 14:34:32;;;;;;;5.10;2.63;;;;;;;;;;5040350;28;20114;-62
2021/05/06 14:37:00;;;;;;;5.13;1.90;;;;;;;;;;5033912;28;20089;-62
2021/05/06 14:39:28;;;;;;;5.50;2.65;;;;;;;;;;5042059;28;20522;-62
2021/05/06 14:41:55;;;;;;;2.80;1.98;;;;;;;;;;5052850;28;20059;-64
2021/05/06 14:44:24;;;;;;;6.80;2.20;;;;;;;;;;5038729;28;20073;-62
2021/05/06 14:46:52;;;;;;;7.65;2.38;;;;;;;;;;5051864;28;20103;-62
2021/05/06 14:49:23;;;;;;;5.93;1.98;;;;;;;;;;5035265;28;20126;-62
2021/05/06 14:51:51;;;;;;;6.05;2.42;;;;;;;;;;5052538;28;20745;-62
2021/05/06 14:54:18;;;;;;;5.80;2.10;;;;;;;;;;5051384;28;20139;-62
2021/05/06 14:56:46;;;;;;;10.02;2.90;;;;;;;;;;5044674;28;20540;-62
2021/05/06 14:59:14;;;;;;;5.70;2.17;;;;;;;;;;5053169;28;20045;-62
2021/05/06 15:01:43;;;;;;;6.32;2.67;;;;;;;;;;5045575;28;20061;-63
2021/05/06 15:04:11;;;;;;;3.97;2.15;;;;;;;;;;5043169;28;20053;-64
2021/05/06 15:06:38;;;;;;;3.97;1.70;;;;;;;;;;5044113;28;20053;-63
2021/05/06 15:09:06;;;;;;;6.28;2.70;;;;;;;;;;5052823;28;20462;-63
2021/05/06 15:11:35;;;;;;;8.02;3.00;;;;;;;;;;5053153;28;20049;-62
2021/05/06 15:14:03;;;;;;;8.13;2.70;;;;;;;;;;5052942;28;20053;-63
2021/05/06 15:16:30;;;;;;;4.78;2.25;;;;;;;;;;5049554;28;20036;-64
2021/05/06 15:18:59;;;;;;;5.80;2.58;;;;;;;;;;5054226;28;20052;-64
2021/05/06 15:21:27;;;;;;;6.57;2.30;;;;;;;;;;5050763;28;20057;-63
2021/05/06 15:23:55;;;;;;;5.85;2.30;;;;;;;;;;5053179;28;20048;-67
2021/05/06 15:26:22;;;;;;;12.60;2.67;;;;;;;;;;5051123;28;20048;-63
2021/05/06 15:28:51;;;;;;;5.60;2.35;;;;;;;;;;5052816;28;20049;-62
2021/05/06 15:31:19;;;;;;;8.32;2.78;;;;;;;;;;5052921;28;20044;-63
2021/05/06 15:33:47;;;;;;;4.03;2.33;;;;;;;;;;5052841;28;20049;-66
2021/05/06 15:36:18;;;;;;;7.15;2.97;;;;;;;;;;5047487;28;20052;-64
2021/05/06 15:38:46;;;;;;;9.60;3.17;;;;;;;;;;5051864;28;20080;-63
2021/05/06 15:41:14;;;;;;;7.22;2.92;;;;;;;;;;5051920;28;20498;-62
2021/05/06 15:43:43;;;;;;;7.55;2.65;;;;;;;;;;5052007;28;20139;-63
2021/05/06 15:46:17;;;;;;;6.65;2.75;;;;;;;;;;5071040;28;20053;-63
2021/05/06 15:48:45;;;;;;;6.47;2.30;;;;;;;;;;5053946;28;20582;-64
2021/05/06 15:51:13;;;;;;;6.43;2.80;;;;;;;;;;5042865;28;20041;-66
2021/05/06 15:53:43;;;;;;;7.20;2.58;;;;;;;;;;5052457;28;20072;-65
2021/05/06 15:56:11;;;;;;;6.40;2.72;;;;;;;;;;5050807;28;20551;-64
2021/05/06 15:58:39;;;;;;;5.95;2.38;;;;;;;;;;5050484;28;20056;-62
2021/05/06 16:01:07;;;;;;;10.27;3.13;;;;;;;;;;5051531;28;20049;-63
2021/05/06 16:03:44;;;;;;;7.88;3.67;;;;;;;;;;5047907;28;20554;-66
2021/05/06 16:06:12;;;;;;;7.80;3.00;;;;;;;;;;5047466;28;20053;-63
2021/05/06 16:08:42;;;;;;;7.07;2.67;;;;;;;;;;5049897;28;20107;-64
2021/05/06 16:11:10;;;;;;;8.35;3.45;;;;;;;;;;5050581;28;20045;-63
2021/05/06 16:13:38;;;;;;;8.00;3.15;;;;;;;;;;5051186;28;20049;-64
2021/05/06 16:16:06;;;;;;;7.72;3.00;;;;;;;;;;5047199;28;20056;-68
2021/05/06 16:18:38;;;;;;;7.45;3.47;;;;;;;;;;5046694;28;20114;-66
2021/05/06 16:21:06;;;;;;;8.95;3.53;;;;;;;;;;5047041;28;20080;-65
2021/05/06 16:23:36;;;;;;;7.35;3.40;;;;;;;;;;5048181;28;20471;-65
2021/05/06 16:26:05;;;;;;;6.07;3.10;;;;;;;;;;5047660;28;20057;-63
2021/05/06 16:28:33;;;;;;;7.35;3.22;;;;;;;;;;5046857;28;20049;-63
2021/05/06 16:31:03;;;;;;;11.35;3.45;;;;;;;;;;5047325;28;20188;-65
2021/05/06 16:33:34;;;;;;;5.95;2.95;;;;;;;;;;5047945;28;20071;-63
2021/05/06 16:36:07;;;;;;;5.97;3.20;;;;;;;;;;5040199;28;20092;-64
2021/05/06 16:38:41;;;;;;;5.70;3.28;;;;;;;;;;5048848;28;20048;-65
2021/05/06 16:41:11;;;;;;;7.40;3.40;;;;;;;;;;5047429;28;20060;-64
2021/05/06 16:43:55;;;;;;;9.43;3.72;;;;;;;;;;5048210;28;20136;-65
2021/05/06 16:46:23;;;;;;;7.25;3.47;;;;;;;;;;5045175;28;20171;-63
2021/05/06 16:48:51;;;;;;;4.97;2.85;;;;;;;;;;5046350;28;20136;-64
2021/05/06 16:51:19;;;;;;;11.38;3.80;;;;;;;;;;5043258;28;20057;-63
2021/05/06 16:53:50;;;;;;;6.15;3.28;;;;;;;;;;5045961;28;20053;-66
2021/05/06 16:56:19;;;;;;;6.93;3.35;;;;;;;;;;5046934;28;20080;-66
2021/05/06 16:58:47;;;;;;;8.93;3.50;;;;;;;;;;5048004;28;20044;-65
2021/05/06 17:01:16;;;;;;;12.35;4.57;;;;;;;;;;5048163;28;20045;-64
2021/05/06 17:03:44;;;;;;;8.18;3.15;;;;;;;;;;5048074;28;20053;-66
2021/05/06 17:06:12;;;;;;;8.70;3.85;;;;;;;;;;5047549;28;20052;-63
2021/05/06 17:08:40;;;;;;;6.68;3.40;;;;;;;;;;5047465;28;20055;-63
2021/05/06 17:11:08;;;;;;;7.72;3.63;;;;;;;;;;5047923;28;20073;-61
2021/05/06 17:13:37;;;;;;;7.47;3.50;;;;;;;;;;5046144;28;20044;-66
2021/05/06 17:16:08;;;;;;;8.73;4.10;;;;;;;;;;5047985;28;20475;-68
2021/05/06 17:18:37;;;;;;;8.82;4.05;;;;;;;;;;5047172;28;20049;-64
2021/05/06 17:21:07;;;;;;;12.45;3.90;;;;;;;;;;5048037;28;20053;-63
2021/05/06 17:23:36;;;;;;;6.68;4.00;;;;;;;;;;5045030;28;20554;-66
2021/05/06 17:26:04;;;;;;;9.18;3.63;;;;;;;;;;5048471;28;20056;-67
2021/05/06 17:28:32;;;;;;;10.45;4.75;;;;;;;;;;5048392;28;20063;-61
2021/05/06 17:31:01;;;;;;;11.52;4.70;;;;;;;;;;5048623;28;20396;-63
2021/05/06 17:33:29;;;;;;;8.85;4.07;;;;;;;;;;5049020;28;20099;-63
2021/05/06 17:35:57;;;;;;;8.63;3.92;;;;;;;;;;5048113;28;20053;-69